Time;durP1;ratioP1;P1;durP2;ratioP2;P2;SDS_P1;SDS_P2;PMS_P1;PMS_P2;Temp;Humidity;BMP_temperature;BMP_pressure;BME280_temperature;BME280_humidity;BME280_pressure;Samples;Min_cycle;Max_cycle;Signal;HPM_P1;HPM_P2
2022/01/08 00:01:58;;;;;;;19.23;10.32;;;1.60;99.90;;;;;;4918645;29;20035;-76
2022/01/08 00:04:23;;;;;;;18.55;10.48;;;1.60;99.90;;;;;;4918277;29;20032;-77
2022/01/08 00:06:49;;;;;;;23.02;10.68;;;1.70;99.90;;;;;;4918205;29;20035;-76
2022/01/08 00:09:15;;;;;;;18.63;10.57;;;1.70;99.90;;;;;;4918063;29;20432;-74
2022/01/08 00:11:42;;;;;;;24.80;12.00;;;1.60;99.90;;;;;;4918115;29;20106;-77
2022/01/08 00:14:10;;;;;;;20.92;11.57;;;1.60;99.90;;;;;;4918007;29;20028;-77
2022/01/08 00:16:37;;;;;;;21.50;11.68;;;1.60;99.90;;;;;;4918267;29;20034;-77
2022/01/08 00:19:04;;;;;;;19.67;10.40;;;1.50;99.90;;;;;;4918316;29;20017;-77
2022/01/08 00:21:30;;;;;;;17.60;10.63;;;1.50;99.90;;;;;;4918385;29;20021;-77
2022/01/08 00:23:56;;;;;;;18.45;10.80;;;1.50;99.90;;;;;;4918262;29;20441;-77
2022/01/08 00:26:22;;;;;;;18.13;10.38;;;1.50;99.90;;;;;;4918346;29;20028;-77
2022/01/08 00:28:48;;;;;;;23.92;12.07;;;1.50;99.90;;;;;;4901055;29;20052;-78
2022/01/08 00:31:14;;;;;;;20.13;11.05;;;1.50;99.90;;;;;;4918179;29;20116;-77
2022/01/08 00:33:40;;;;;;;25.55;11.32;;;1.50;99.90;;;;;;4917857;29;20028;-78
2022/01/08 00:36:07;;;;;;;20.02;11.07;;;1.50;99.90;;;;;;4917816;29;20028;-76
2022/01/08 00:38:33;;;;;;;22.08;12.10;;;1.50;99.90;;;;;;4917993;29;20470;-78
2022/01/08 00:40:59;;;;;;;17.02;10.63;;;1.50;99.90;;;;;;4917768;29;20071;-78
2022/01/08 00:43:25;;;;;;;19.27;10.77;;;1.50;99.90;;;;;;4917618;29;20035;-77
2022/01/08 00:45:51;;;;;;;25.83;11.95;;;1.50;99.90;;;;;;4917910;29;20039;-77
2022/01/08 00:48:16;;;;;;;20.70;11.30;;;1.50;99.90;;;;;;4915931;29;20020;-77
2022/01/08 00:50:42;;;;;;;20.38;10.68;;;1.50;99.90;;;;;;4915481;29;20036;-78
2022/01/08 00:53:08;;;;;;;24.90;11.40;;;1.50;99.90;;;;;;4915595;29;20028;-78
2022/01/08 00:55:35;;;;;;;17.50;10.18;;;1.60;99.90;;;;;;4915754;29;20390;-77
2022/01/08 00:58:01;;;;;;;27.75;11.85;;;1.50;99.90;;;;;;4915886;29;20027;-75
2022/01/08 01:00:26;;;;;;;20.58;11.23;;;1.50;99.90;;;;;;4915573;29;20482;-78
2022/01/08 01:02:53;;;;;;;21.42;11.55;;;1.50;99.90;;;;;;4916640;29;20129;-78
2022/01/08 01:05:20;;;;;;;24.90;11.65;;;1.50;99.90;;;;;;4917522;29;20052;-77
2022/01/08 01:07:46;;;;;;;24.73;11.93;;;1.60;99.90;;;;;;4917453;29;20024;-77
2022/01/08 01:10:12;;;;;;;23.90;13.13;;;1.60;99.90;;;;;;4917258;29;20032;-77
2022/01/08 01:12:38;;;;;;;22.10;11.70;;;1.50;99.90;;;;;;4917475;29;20032;-77
2022/01/08 01:15:05;;;;;;;22.10;11.63;;;1.50;99.90;;;;;;4917371;29;20044;-76
2022/01/08 01:17:31;;;;;;;23.50;11.25;;;1.60;99.90;;;;;;4917374;29;20025;-77
2022/01/08 01:19:57;;;;;;;21.42;12.98;;;1.60;99.90;;;;;;4917151;29;20028;-77
2022/01/08 01:22:28;;;;;;;21.35;11.85;;;1.60;99.90;;;;;;4916788;29;20485;-76
2022/01/08 01:25:01;;;;;;;26.60;12.17;;;1.60;99.90;;;;;;4916267;29;20024;-78
2022/01/08 01:30:07;;;;;;;24.50;12.60;;;1.60;99.90;;;;;;4917114;29;20044;-77
2022/01/08 01:49:00;;;;;;;20.30;11.45;;;1.70;99.90;;;;;;4916351;29;20042;-78
2022/01/08 01:51:25;;;;;;;20.83;10.68;;;1.80;99.90;;;;;;4916720;29;20111;-77
2022/01/08 01:53:51;;;;;;;20.50;11.60;;;1.70;99.90;;;;;;4899627;29;20468;-77
2022/01/08 01:56:18;;;;;;;20.98;11.65;;;1.80;99.90;;;;;;4916964;29;20103;-77
2022/01/08 01:58:45;;;;;;;20.80;10.80;;;1.70;99.90;;;;;;4916228;29;20024;-77
2022/01/08 02:01:12;;;;;;;20.77;10.75;;;1.70;99.90;;;;;;4916587;29;20052;-77
2022/01/08 02:03:39;;;;;;;25.98;11.02;;;1.70;99.90;;;;;;4916565;29;20032;-76
2022/01/08 02:06:05;;;;;;;25.58;10.93;;;1.60;99.90;;;;;;4916604;29;20020;-76
2022/01/08 02:08:31;;;;;;;19.23;11.05;;;1.60;99.90;;;;;;4915911;29;20107;-78
2022/01/08 02:10:57;;;;;;;26.05;11.63;;;1.70;99.90;;;;;;4915920;29;20134;-78
2022/01/08 02:13:27;;;;;;;24.67;11.43;;;1.60;99.90;;;;;;4916763;29;20028;-77
2022/01/08 02:15:55;;;;;;;26.48;11.43;;;1.70;99.90;;;;;;4899861;29;20090;-77
2022/01/08 02:18:23;;;;;;;22.13;10.60;;;1.60;99.90;;;;;;4916556;29;20024;-77
2022/01/08 02:20:49;;;;;;;18.80;11.10;;;1.60;99.90;;;;;;4916347;29;20107;-77
2022/01/08 02:23:15;;;;;;;19.85;10.88;;;1.60;99.90;;;;;;4916529;29;20124;-76
2022/01/08 02:25:41;;;;;;;20.42;11.20;;;1.60;99.90;;;;;;4916337;29;20024;-77
2022/01/08 02:28:07;;;;;;;26.02;11.02;;;1.60;99.90;;;;;;4916527;29;20117;-77
2022/01/08 02:30:33;;;;;;;21.73;10.27;;;1.50;99.90;;;;;;4916344;29;20425;-79
2022/01/08 02:32:59;;;;;;;19.33;10.98;;;1.50;99.90;;;;;;4916470;29;20036;-77
2022/01/08 02:35:26;;;;;;;19.27;10.00;;;1.50;99.90;;;;;;4916553;29;20381;-78
2022/01/08 02:37:53;;;;;;;20.13;9.68;;;1.50;99.90;;;;;;4916756;29;20032;-78
2022/01/08 02:40:20;;;;;;;23.15;9.95;;;1.50;99.90;;;;;;4916279;29;20056;-77
2022/01/08 02:43:03;;;;;;;17.73;9.70;;;1.50;99.90;;;;;;4916387;29;20028;-78
2022/01/08 02:45:30;;;;;;;18.10;9.55;;;1.60;99.90;;;;;;4916187;29;20540;-78
2022/01/08 02:47:56;;;;;;;16.95;9.50;;;1.60;99.90;;;;;;4916237;29;20040;-77
2022/01/08 02:50:23;;;;;;;21.67;9.00;;;1.60;99.90;;;;;;4916040;29;20040;-78
2022/01/08 02:52:49;;;;;;;20.90;9.23;;;1.60;99.90;;;;;;4916294;29;20024;-77
2022/01/08 02:55:18;;;;;;;15.32;9.55;;;1.70;99.90;;;;;;4916443;29;20043;-77
2022/01/08 02:57:44;;;;;;;14.13;8.52;;;1.60;99.90;;;;;;4916573;29;20028;-77
2022/01/08 03:00:17;;;;;;;14.82;8.05;;;1.70;99.90;;;;;;4916078;29;20575;-77
2022/01/08 03:02:45;;;;;;;15.52;8.90;;;1.70;99.90;;;;;;4916587;29;20385;-76
2022/01/08 03:05:11;;;;;;;17.35;7.80;;;1.70;99.90;;;;;;4899604;29;20043;-77
2022/01/08 03:07:42;;;;;;;11.38;7.13;;;1.70;99.90;;;;;;4918658;29;20084;-78
2022/01/08 03:10:10;;;;;;;15.02;7.68;;;1.70;99.90;;;;;;4925932;29;20024;-78
2022/01/08 03:12:43;;;;;;;11.13;7.57;;;1.70;99.90;;;;;;4928819;29;20035;-77
2022/01/08 03:15:17;;;;;;;19.02;7.20;;;1.70;99.90;;;;;;4929130;29;20060;-77
2022/01/08 03:17:44;;;;;;;15.82;7.85;;;1.80;99.90;;;;;;4928884;29;20068;-78
2022/01/08 03:20:13;;;;;;;15.68;7.03;;;1.80;99.90;;;;;;4928004;29;20065;-78
2022/01/08 03:22:41;;;;;;;12.25;6.97;;;1.90;99.90;;;;;;4928546;29;20028;-74
2022/01/08 03:25:08;;;;;;;13.57;7.25;;;1.90;99.90;;;;;;4930095;29;20465;-79
2022/01/08 03:27:34;;;;;;;13.70;7.65;;;1.80;99.90;;;;;;4929231;29;20044;-78
2022/01/08 03:30:00;;;;;;;14.52;7.43;;;1.80;99.90;;;;;;4929432;29;20060;-78
2022/01/08 03:32:26;;;;;;;11.30;7.32;;;1.80;99.90;;;;;;4929655;29;20032;-77
2022/01/08 03:34:53;;;;;;;14.60;8.60;;;1.80;99.90;;;;;;4928757;29;20020;-78
2022/01/08 03:37:19;;;;;;;13.52;7.32;;;1.80;99.90;;;;;;4928235;29;20099;-77
2022/01/08 03:39:44;;;;;;;12.40;7.38;;;1.80;99.90;;;;;;4927988;29;20478;-77
2022/01/08 03:42:10;;;;;;;16.65;7.60;;;1.80;99.90;;;;;;4919558;29;20031;-77
2022/01/08 03:44:36;;;;;;;18.83;7.22;;;1.80;99.90;;;;;;4919305;29;20020;-77
2022/01/08 03:50:07;;;;;;;14.27;7.65;;;1.80;99.90;;;;;;4842136;29;20396;-78
2022/01/08 03:52:32;;;;;;;15.98;8.13;;;1.70;99.90;;;;;;4842654;29;20030;-77
2022/01/08 03:54:58;;;;;;;13.32;7.97;;;1.70;99.90;;;;;;4877868;29;20040;-76
2022/01/08 03:57:24;;;;;;;16.45;7.55;;;1.70;99.90;;;;;;4918954;29;20417;-76
2022/01/08 03:59:51;;;;;;;12.40;7.43;;;1.70;99.90;;;;;;4918898;29;20028;-78
2022/01/08 04:02:16;;;;;;;13.07;7.82;;;1.70;99.90;;;;;;4918717;29;20026;-78
2022/01/08 04:04:42;;;;;;;13.93;7.13;;;1.70;99.90;;;;;;4918764;29;20384;-76
2022/01/08 04:07:08;;;;;;;16.00;8.38;;;1.70;99.90;;;;;;4918444;29;20036;-77
2022/01/08 04:09:34;;;;;;;15.10;8.05;;;1.70;99.90;;;;;;4918808;29;20042;-76
2022/01/08 04:12:00;;;;;;;17.00;7.88;;;1.70;99.90;;;;;;4919036;29;20389;-77
2022/01/08 04:14:33;;;;;;;15.55;8.38;;;1.70;99.90;;;;;;4917598;29;20027;-78
2022/01/08 04:16:58;;;;;;;15.25;7.90;;;1.70;99.90;;;;;;4918553;29;20035;-77
2022/01/08 04:19:24;;;;;;;13.18;7.03;;;1.70;99.90;;;;;;4918279;29;20025;-77
2022/01/08 04:21:59;;;;;;;20.92;9.27;;;1.70;99.90;;;;;;4917763;29;20024;-77
2022/01/08 04:24:26;;;;;;;18.13;8.95;;;1.70;99.90;;;;;;4917883;29;20032;-74
2022/01/08 04:26:52;;;;;;;13.63;7.78;;;1.60;99.90;;;;;;4918065;29;20355;-76
2022/01/08 04:29:18;;;;;;;18.42;8.93;;;1.70;99.90;;;;;;4918026;29;20047;-78
2022/01/08 04:31:44;;;;;;;18.55;8.88;;;1.60;99.90;;;;;;4918250;29;20114;-78
2022/01/08 04:34:10;;;;;;;13.93;7.82;;;1.60;99.90;;;;;;4918252;29;20028;-78
2022/01/08 04:36:35;;;;;;;16.00;9.68;;;1.70;99.90;;;;;;4918019;29;20032;-78
2022/01/08 04:39:01;;;;;;;17.20;9.55;;;1.60;99.90;;;;;;4918016;29;20489;-76
2022/01/08 04:41:27;;;;;;;13.60;8.55;;;1.60;99.90;;;;;;4918253;29;20032;-75
2022/01/08 04:43:52;;;;;;;16.05;8.85;;;1.60;99.90;;;;;;4918050;29;20075;-76
2022/01/08 04:46:18;;;;;;;13.43;8.75;;;1.60;99.90;;;;;;4917962;29;20075;-75
2022/01/08 04:48:44;;;;;;;15.10;7.90;;;1.50;99.90;;;;;;4917890;29;20020;-78
2022/01/08 04:51:10;;;;;;;15.90;8.55;;;1.60;99.90;;;;;;4917046;29;20047;-77
2022/01/08 04:53:35;;;;;;;16.80;8.85;;;1.50;99.90;;;;;;4917677;29;20031;-77
2022/01/08 04:56:01;;;;;;;15.45;9.02;;;1.50;99.90;;;;;;4917659;29;20032;-78
2022/01/08 04:58:28;;;;;;;23.13;9.43;;;1.50;99.90;;;;;;4916992;29;20024;-78
2022/01/08 05:00:54;;;;;;;14.80;9.27;;;1.50;99.90;;;;;;4917529;29;20036;-77
2022/01/08 05:03:20;;;;;;;17.02;8.65;;;1.50;99.90;;;;;;4917868;29;20036;-77
2022/01/08 05:05:46;;;;;;;19.58;10.32;;;1.50;99.90;;;;;;4917751;29;20401;-77
2022/01/08 05:08:12;;;;;;;20.60;10.27;;;1.50;99.90;;;;;;4917381;29;20028;-79
2022/01/08 05:10:38;;;;;;;20.20;9.98;;;1.50;99.90;;;;;;4916452;29;20741;-77
2022/01/08 05:13:05;;;;;;;18.08;9.15;;;1.50;99.90;;;;;;4915788;29;20102;-76
2022/01/08 05:15:32;;;;;;;18.17;9.35;;;1.50;99.90;;;;;;4917191;29;20024;-77
2022/01/08 05:17:58;;;;;;;14.82;9.52;;;1.50;99.90;;;;;;4908619;29;20031;-78
2022/01/08 05:20:27;;;;;;;17.02;9.63;;;1.40;99.90;;;;;;4898019;29;20482;-75
2022/01/08 05:22:59;;;;;;;17.50;9.48;;;1.40;99.90;;;;;;4898346;29;20056;-75
2022/01/08 05:25:26;;;;;;;16.50;10.00;;;1.50;99.90;;;;;;4897432;29;20059;-77
2022/01/08 05:27:51;;;;;;;18.67;9.85;;;1.40;99.90;;;;;;4897672;29;20080;-78
2022/01/08 05:30:20;;;;;;;14.25;8.55;;;1.50;99.90;;;;;;4897928;29;20056;-77
2022/01/08 05:32:46;;;;;;;19.02;9.27;;;1.40;99.90;;;;;;4898166;29;20467;-77
2022/01/08 05:35:12;;;;;;;17.20;9.85;;;1.40;99.90;;;;;;4897164;29;20029;-77
2022/01/08 05:37:38;;;;;;;18.52;10.32;;;1.40;99.90;;;;;;4897818;29;20470;-78
2022/01/08 05:40:04;;;;;;;16.55;10.75;;;1.40;99.90;;;;;;4898116;29;20085;-76
2022/01/08 05:42:30;;;;;;;22.25;11.38;;;1.40;99.90;;;;;;4898249;29;20027;-77
2022/01/08 05:44:56;;;;;;;15.25;9.73;;;1.50;99.90;;;;;;4898079;29;20033;-78
2022/01/08 05:47:22;;;;;;;22.52;12.18;;;1.50;99.90;;;;;;4897475;29;20031;-75
2022/01/08 05:49:48;;;;;;;18.67;9.77;;;1.60;99.90;;;;;;4896336;29;20021;-77
2022/01/08 05:52:14;;;;;;;20.35;10.15;;;1.60;99.90;;;;;;4897590;29;20052;-76
2022/01/08 05:54:39;;;;;;;16.38;9.82;;;1.60;99.90;;;;;;4897260;29;20377;-77
2022/01/08 05:57:06;;;;;;;19.70;10.65;;;1.60;99.90;;;;;;4912731;29;20040;-76
2022/01/08 05:59:32;;;;;;;19.65;10.60;;;1.60;99.90;;;;;;4916731;29;20116;-77
2022/01/08 06:01:58;;;;;;;14.55;8.93;;;1.60;99.90;;;;;;4915972;29;20060;-77
2022/01/08 06:04:24;;;;;;;23.23;10.48;;;1.60;99.90;;;;;;4915103;29;20103;-77
2022/01/08 06:06:50;;;;;;;21.63;10.40;;;1.60;99.90;;;;;;4916126;29;20031;-78
2022/01/08 06:09:16;;;;;;;19.38;10.35;;;1.50;99.90;;;;;;4916011;29;20064;-77
2022/01/08 06:11:43;;;;;;;18.90;10.43;;;1.50;99.90;;;;;;4916395;29;20040;-76
2022/01/08 06:14:09;;;;;;;22.77;12.07;;;1.50;99.90;;;;;;4914816;29;20020;-78
2022/01/08 06:16:36;;;;;;;18.67;10.63;;;1.50;99.90;;;;;;4916655;29;20032;-77
2022/01/08 06:19:10;;;;;;;19.00;10.73;;;1.40;99.90;;;;;;4916001;29;20028;-77
2022/01/08 06:21:36;;;;;;;19.20;10.32;;;1.40;99.90;;;;;;4904592;29;20037;-77
2022/01/08 06:24:06;;;;;;;20.58;11.20;;;1.40;99.90;;;;;;4905397;29;20474;-77
2022/01/08 06:26:32;;;;;;;22.13;10.18;;;1.30;99.90;;;;;;4916243;29;20043;-76
2022/01/08 06:28:58;;;;;;;15.70;9.82;;;1.30;99.90;;;;;;4915801;29;20459;-76
2022/01/08 06:31:24;;;;;;;21.73;10.95;;;1.20;99.90;;;;;;4910547;29;20049;-76
2022/01/08 06:33:52;;;;;;;22.80;10.95;;;1.20;99.90;;;;;;4900668;29;20033;-75
2022/01/08 06:36:18;;;;;;;20.30;11.00;;;1.10;99.90;;;;;;4907035;29;20037;-78
2022/01/08 06:38:45;;;;;;;17.88;10.10;;;1.10;99.90;;;;;;4897223;29;20090;-77
2022/01/08 06:41:11;;;;;;;21.55;11.23;;;1.10;99.90;;;;;;4897418;29;20049;-78
2022/01/08 06:43:36;;;;;;;18.63;10.32;;;1.10;99.90;;;;;;4901925;29;20687;-77
2022/01/08 06:46:02;;;;;;;19.40;10.60;;;1.10;99.90;;;;;;4908385;29;20017;-76
2022/01/08 06:48:28;;;;;;;23.55;11.43;;;1.10;99.90;;;;;;4886645;29;20553;-77
2022/01/08 06:50:54;;;;;;;18.85;10.48;;;1.20;99.90;;;;;;4902805;29;20043;-77
2022/01/08 06:53:19;;;;;;;20.02;10.20;;;1.10;99.90;;;;;;4899725;29;20039;-77
2022/01/08 06:55:45;;;;;;;21.95;10.18;;;1.20;99.90;;;;;;4906932;29;20136;-75
2022/01/08 06:58:11;;;;;;;20.35;10.40;;;1.20;99.90;;;;;;4901567;29;20040;-77
2022/01/08 07:00:37;;;;;;;22.95;10.93;;;1.20;99.90;;;;;;4919837;29;20032;-77
2022/01/08 07:03:05;;;;;;;18.40;8.77;;;1.20;99.90;;;;;;4918115;29;20024;-76
2022/01/08 07:05:31;;;;;;;17.13;9.93;;;1.20;99.90;;;;;;4908855;29;20025;-77
2022/01/08 07:07:57;;;;;;;18.08;9.80;;;1.20;99.90;;;;;;4918157;29;20030;-76
2022/01/08 07:10:22;;;;;;;17.77;9.98;;;1.10;99.90;;;;;;4917874;29;20032;-78
2022/01/08 07:12:48;;;;;;;18.60;9.27;;;1.10;99.90;;;;;;4901212;29;20033;-77
2022/01/08 07:15:14;;;;;;;17.27;9.90;;;1.10;99.90;;;;;;4907671;29;20507;-78
2022/01/08 07:17:40;;;;;;;17.08;9.23;;;1.10;99.90;;;;;;4904944;29;20386;-77
2022/01/08 07:20:06;;;;;;;17.75;9.63;;;1.10;99.90;;;;;;4919313;29;20111;-78
2022/01/08 07:22:32;;;;;;;16.13;8.85;;;1.20;99.90;;;;;;4913912;29;20028;-78
2022/01/08 07:24:58;;;;;;;15.02;8.88;;;1.20;99.90;;;;;;4909832;29;20059;-79
2022/01/08 07:27:24;;;;;;;21.00;9.63;;;1.20;99.90;;;;;;4908328;29;20433;-79
2022/01/08 07:29:49;;;;;;;21.80;10.20;;;1.30;99.90;;;;;;4911531;29;20044;-79
2022/01/08 07:32:15;;;;;;;18.00;9.68;;;1.30;99.90;;;;;;4900511;29;20088;-78
2022/01/08 07:34:41;;;;;;;17.02;9.68;;;1.30;99.90;;;;;;4903588;29;20024;-79
2022/01/08 07:37:06;;;;;;;21.48;8.93;;;1.30;99.90;;;;;;4909756;29;20381;-78
2022/01/08 07:39:32;;;;;;;20.45;10.30;;;1.50;99.90;;;;;;4910317;29;20024;-79
2022/01/08 07:41:58;;;;;;;15.30;9.30;;;1.60;99.90;;;;;;4903881;29;20393;-78
2022/01/08 07:44:23;;;;;;;17.30;9.18;;;1.70;99.90;;;;;;4908391;29;20028;-78
2022/01/08 07:46:49;;;;;;;18.02;8.20;;;2.20;99.90;;;;;;4911862;29;20688;-78
2022/01/08 07:49:15;;;;;;;17.77;9.65;;;2.80;99.90;;;;;;4909464;29;20040;-79
2022/01/08 07:51:40;;;;;;;12.60;8.18;;;3.40;99.90;;;;;;4909968;29;20044;-77
2022/01/08 07:54:06;;;;;;;14.73;8.68;;;3.90;99.90;;;;;;4911139;29;20034;-78
2022/01/08 07:56:34;;;;;;;15.80;8.82;;;4.30;99.90;;;;;;4901916;29;20040;-79
2022/01/08 07:59:00;;;;;;;18.13;8.88;;;4.70;99.90;;;;;;4914885;29;20024;-79
2022/01/08 08:01:26;;;;;;;19.75;8.68;;;4.90;99.90;;;;;;4918869;29;20150;-79
2022/01/08 08:03:52;;;;;;;17.02;8.65;;;5.40;99.90;;;;;;4908518;29;20036;-79
2022/01/08 08:06:18;;;;;;;15.90;8.85;;;5.60;99.90;;;;;;4909911;29;20072;-78
2022/01/08 08:08:44;;;;;;;16.42;8.40;;;5.50;99.90;;;;;;4909972;29;20020;-78
2022/01/08 08:11:10;;;;;;;16.75;8.55;;;5.60;99.90;;;;;;4892099;29;20044;-79
2022/01/08 08:13:36;;;;;;;12.50;8.50;;;5.40;99.90;;;;;;4906577;29;20036;-78
2022/01/08 08:16:01;;;;;;;15.32;8.30;;;5.40;99.90;;;;;;4909626;29;20016;-78
2022/01/08 08:18:28;;;;;;;15.43;8.93;;;5.60;99.90;;;;;;4907807;29;20032;-79
2022/01/08 08:20:54;;;;;;;13.50;7.60;;;6.20;99.90;;;;;;4918017;29;20478;-79
2022/01/08 08:23:19;;;;;;;15.50;8.50;;;6.40;99.90;;;;;;4916841;29;20039;-76
2022/01/08 08:25:46;;;;;;;13.10;7.45;;;6.40;99.90;;;;;;4917745;29;20072;-75
2022/01/08 08:28:11;;;;;;;11.18;7.03;;;6.70;99.50;;;;;;4917386;29;20127;-76
2022/01/08 08:30:37;;;;;;;15.13;7.93;;;6.90;99.40;;;;;;4917685;29;20123;-77
2022/01/08 08:33:04;;;;;;;22.95;8.40;;;7.30;98.80;;;;;;4918401;29;20478;-76
2022/01/08 08:35:30;;;;;;;18.02;7.85;;;7.20;98.50;;;;;;4918527;29;20043;-76
2022/01/08 08:37:56;;;;;;;13.50;7.40;;;7.20;98.90;;;;;;4918506;29;20075;-77
2022/01/08 08:40:22;;;;;;;18.00;7.97;;;7.80;98.00;;;;;;4918658;29;20498;-77
2022/01/08 08:42:48;;;;;;;16.85;8.32;;;8.00;97.40;;;;;;4909981;29;20129;-76
2022/01/08 08:45:13;;;;;;;15.05;7.63;;;8.30;97.40;;;;;;4910237;29;20378;-76
2022/01/08 08:47:40;;;;;;;13.80;8.02;;;8.60;97.30;;;;;;4910416;29;20017;-76
2022/01/08 08:50:08;;;;;;;19.70;7.80;;;9.30;96.30;;;;;;4911173;29;20028;-76
2022/01/08 08:52:34;;;;;;;13.40;7.13;;;9.80;95.70;;;;;;4905949;29;20036;-74
2022/01/08 08:55:00;;;;;;;15.23;8.05;;;9.80;95.30;;;;;;4908177;29;20016;-76
2022/01/08 08:57:26;;;;;;;18.98;10.55;;;10.20;95.10;;;;;;4908029;29;20060;-75
2022/01/08 08:59:52;;;;;;;10.88;6.80;;;10.20;94.70;;;;;;4906526;29;20066;-76
2022/01/08 09:02:17;;;;;;;18.92;8.02;;;10.10;94.00;;;;;;4904307;29;20060;-76
2022/01/08 09:04:43;;;;;;;12.77;7.22;;;10.30;94.30;;;;;;4907936;29;20473;-77
2022/01/08 09:07:09;;;;;;;11.60;6.57;;;10.80;93.30;;;;;;4912061;29;20067;-78
2022/01/08 09:09:35;;;;;;;12.20;6.57;;;10.90;93.00;;;;;;4908101;29;20108;-79
2022/01/08 09:12:01;;;;;;;14.30;10.00;;;10.70;92.80;;;;;;4904586;29;20536;-76
2022/01/08 09:14:27;;;;;;;13.15;8.07;;;10.30;93.30;;;;;;4908723;29;20021;-77
2022/01/08 09:17:00;;;;;;;17.52;8.77;;;10.20;93.40;;;;;;4907985;29;20021;-79
2022/01/08 09:19:26;;;;;;;18.08;8.88;;;10.30;93.70;;;;;;4912140;29;20052;-77
2022/01/08 09:21:52;;;;;;;16.55;8.57;;;10.00;93.70;;;;;;4911629;29;20063;-78
2022/01/08 09:24:21;;;;;;;16.63;7.80;;;9.70;93.90;;;;;;4918140;29;20059;-80
2022/01/08 09:26:48;;;;;;;20.55;12.40;;;9.20;94.20;;;;;;4914119;29;20098;-78
2022/01/08 09:29:15;;;;;;;25.77;17.17;;;9.20;94.20;;;;;;4904227;29;20041;-74
2022/01/08 09:31:41;;;;;;;21.63;14.85;;;9.30;94.40;;;;;;4893220;29;20040;-80
2022/01/08 09:34:08;;;;;;;19.38;10.90;;;9.00;94.40;;;;;;4905993;29;20039;-79
2022/01/08 09:36:35;;;;;;;19.67;11.80;;;8.70;94.80;;;;;;4913052;29;20075;-80
2022/01/08 09:39:01;;;;;;;19.15;11.55;;;8.60;94.60;;;;;;4911292;29;20024;-80
2022/01/08 09:41:27;;;;;;;11.50;7.15;;;8.40;94.90;;;;;;4914345;29;20044;-80
2022/01/08 09:43:53;;;;;;;15.35;8.25;;;8.20;95.00;;;;;;4918037;29;20001;-80
2022/01/08 09:46:21;;;;;;;21.48;12.25;;;8.20;95.30;;;;;;4920334;29;20051;-79
2022/01/08 09:48:48;;;;;;;18.23;7.93;;;8.30;95.60;;;;;;4912331;29;20462;-81
2022/01/08 09:51:15;;;;;;;16.65;8.93;;;8.00;94.50;;;;;;4913288;29;20044;-75
2022/01/08 09:53:42;;;;;;;16.52;7.53;;;7.60;95.40;;;;;;4918061;29;20020;-81
2022/01/08 09:56:08;;;;;;;16.90;10.70;;;7.50;95.00;;;;;;4918355;29;20080;-80
2022/01/08 09:58:34;;;;;;;17.63;9.90;;;7.50;95.10;;;;;;4917580;29;20028;-78
2022/01/08 10:01:00;;;;;;;14.57;8.20;;;7.30;95.40;;;;;;4921371;29;20031;-78
2022/01/08 10:03:31;;;;;;;12.82;7.47;;;7.60;95.30;;;;;;4910213;29;20028;-79
2022/01/08 10:05:58;;;;;;;12.27;6.82;;;7.60;94.60;;;;;;4916724;29;20044;-81
2022/01/08 10:08:32;;;;;;;19.08;8.93;;;7.80;94.40;;;;;;4921125;29;20049;-82
2022/01/08 10:10:59;;;;;;;16.67;7.30;;;8.10;94.50;;;;;;4917885;29;20032;-82
2022/01/08 10:13:32;;;;;;;11.95;6.30;;;8.50;94.10;;;;;;4910157;29;20028;-81
2022/01/08 10:18:45;;;;;;;12.27;6.43;;;9.00;93.10;;;;;;4906107;29;20067;-78
2022/01/08 10:21:28;;;;;;;15.23;7.30;;;8.80;92.60;;;;;;4899701;29;20027;-79
2022/01/08 10:23:59;;;;;;;11.55;7.20;;;8.60;92.90;;;;;;4901432;29;20362;-77
2022/01/08 10:26:32;;;;;;;9.23;5.85;;;8.70;92.90;;;;;;4901601;29;20024;-78
2022/01/08 10:29:03;;;;;;;11.13;6.15;;;9.10;92.20;;;;;;4901165;29;20056;-81
2022/01/08 10:31:41;;;;;;;14.55;5.60;;;9.50;92.10;;;;;;4914392;29;20032;-81
2022/01/08 10:34:09;;;;;;;10.77;6.55;;;9.70;92.00;;;;;;4911274;29;20025;-78
2022/01/08 10:36:47;;;;;;;18.75;7.85;;;10.10;91.60;;;;;;4902899;29;20032;-74
2022/01/08 10:39:14;;;;;;;8.95;5.60;;;10.10;91.40;;;;;;4911016;29;20490;-80
2022/01/08 10:41:42;;;;;;;9.90;5.65;;;10.40;91.00;;;;;;4909481;29;20055;-79
2022/01/08 10:44:12;;;;;;;9.25;4.57;;;10.70;91.10;;;;;;4901129;29;20024;-80
2022/01/08 10:46:38;;;;;;;6.82;4.38;;;10.90;89.10;;;;;;4900999;29;20029;-77
2022/01/08 10:49:05;;;;;;;11.98;5.50;;;11.20;89.50;;;;;;4900179;29;20029;-80
2022/01/08 10:51:37;;;;;;;8.55;4.47;;;11.50;88.90;;;;;;4901862;29;20040;-79
2022/01/08 10:54:03;;;;;;;5.75;4.10;;;11.70;87.10;;;;;;4901332;29;20470;-80
2022/01/08 10:56:34;;;;;;;6.22;4.45;;;11.60;85.80;;;;;;4901494;29;20025;-80
2022/01/08 10:59:19;;;;;;;7.68;4.15;;;11.10;86.80;;;;;;4901374;29;20017;-79
2022/01/08 11:02:15;;;;;;;8.27;4.70;;;11.00;86.20;;;;;;4885833;29;20059;-80
2022/01/08 11:04:45;;;;;;;7.63;4.75;;;11.20;86.10;;;;;;4901456;29;20498;-81
2022/01/08 11:07:24;;;;;;;9.13;4.90;;;11.30;85.20;;;;;;4902113;29;20029;-77
2022/01/08 11:10:03;;;;;;;10.73;4.80;;;11.30;85.50;;;;;;4901824;29;20033;-81
2022/01/08 11:12:37;;;;;;;14.13;4.30;;;11.50;85.30;;;;;;4901945;29;20394;-81
2022/01/08 11:17:44;;;;;;;14.35;5.93;;;11.40;83.70;;;;;;4904319;29;20037;-81
2022/01/08 11:20:12;;;;;;;10.13;6.07;;;11.60;84.00;;;;;;4910118;29;20027;-80
2022/01/08 11:22:43;;;;;;;15.02;7.78;;;11.80;83.60;;;;;;4909823;29;20013;-81
2022/01/08 11:25:24;;;;;;;13.63;7.97;;;12.00;83.30;;;;;;4910450;29;20532;-78
2022/01/08 11:28:07;;;;;;;7.25;4.10;;;12.20;82.80;;;;;;4909961;29;20032;-81
2022/01/08 11:30:35;;;;;;;10.52;6.05;;;12.00;81.60;;;;;;4909953;29;20028;-82
2022/01/08 11:33:07;;;;;;;9.88;5.05;;;12.00;82.80;;;;;;4911774;29;20111;-80
2022/01/08 11:35:35;;;;;;;;;;;12.20;82.00;;;;;;4910856;29;20024;-81
2022/01/08 11:38:04;;;;;;;9.60;5.75;;;12.20;80.80;;;;;;4904588;29;19907;-80
2022/01/08 11:40:31;;;;;;;9.95;5.90;;;12.50;81.00;;;;;;4914550;29;20035;-79
2022/01/08 11:43:04;;;;;;;10.68;6.75;;;12.70;80.90;;;;;;4911159;29;20031;-82
2022/01/08 11:45:52;;;;;;;11.60;6.65;;;13.00;80.70;;;;;;4911291;29;20028;-82
2022/01/08 11:48:22;;;;;;;10.63;6.38;;;13.00;78.90;;;;;;4911054;29;20060;-82
2022/01/08 11:50:57;;;;;;;13.85;8.00;;;12.80;77.50;;;;;;4910891;29;20109;-81
2022/01/08 11:53:24;;;;;;;14.13;7.43;;;12.70;78.70;;;;;;4916584;29;20032;-82
2022/01/08 11:56:01;;;;;;;10.55;5.85;;;12.40;76.80;;;;;;4909614;29;20036;-80
2022/01/08 11:58:32;;;;;;;7.32;4.28;;;12.20;77.50;;;;;;4910197;29;20060;-80
2022/01/08 12:01:02;;;;;;;6.35;4.43;;;12.10;75.70;;;;;;4908345;29;20092;-80
2022/01/08 12:03:32;;;;;;;18.85;10.25;;;12.00;75.80;;;;;;4907382;29;20032;-82
2022/01/08 12:06:18;;;;;;;26.65;12.38;;;11.80;74.80;;;;;;4916937;29;20028;-79
2022/01/08 12:09:17;;;;;;;14.20;8.18;;;11.60;74.50;;;;;;4908213;29;20115;-81
2022/01/08 12:11:46;;;;;;;12.10;6.70;;;11.20;72.20;;;;;;4919025;29;20044;-83
2022/01/08 12:14:14;;;;;;;8.25;5.03;;;10.80;70.90;;;;;;4918730;29;20609;-84
2022/01/08 12:16:41;;;;;;;11.25;6.90;;;10.50;72.20;;;;;;4915203;29;20032;-77
2022/01/08 12:19:09;;;;;;;16.35;9.68;;;10.30;72.10;;;;;;4909136;29;20095;-79
2022/01/08 12:21:39;;;;;;;7.78;5.07;;;10.10;73.00;;;;;;4891503;29;20505;-78
2022/01/08 12:24:26;;;;;;;6.47;4.35;;;10.00;74.90;;;;;;4903936;29;20024;-77
2022/01/08 12:26:57;;;;;;;7.80;4.70;;;9.90;73.50;;;;;;4913067;29;20107;-76
2022/01/08 12:29:33;;;;;;;10.73;6.07;;;9.60;72.40;;;;;;4914670;29;20534;-74
2022/01/08 12:32:37;;;;;;;8.00;4.70;;;9.40;71.50;;;;;;4899820;29;20064;-79
2022/01/08 12:35:15;;;;;;;7.10;4.90;;;9.20;72.20;;;;;;4903713;29;20482;-76
2022/01/08 12:37:45;;;;;;;6.78;3.63;;;9.10;73.00;;;;;;4913196;29;20064;-74
2022/01/08 12:40:34;;;;;;;6.82;3.80;;;9.00;71.70;;;;;;4917242;29;20024;-77
2022/01/08 12:43:15;;;;;;;20.45;9.95;;;9.00;71.70;;;;;;4910654;29;20060;-77
2022/01/08 12:45:46;;;;;;;15.38;10.43;;;8.90;72.60;;;;;;4908019;29;20043;-74
2022/01/08 12:48:13;;;;;;;9.43;6.25;;;9.00;73.90;;;;;;4909511;29;20035;-77
2022/01/08 12:50:52;;;;;;;9.32;3.78;;;9.00;73.80;;;;;;4908575;29;20032;-75
2022/01/08 12:53:24;;;;;;;5.32;3.47;;;9.00;73.30;;;;;;4908642;29;20024;-77
2022/01/08 12:55:53;;;;;;;;;;;9.00;72.80;;;;;;4907222;29;20517;-75
2022/01/08 12:58:26;;;;;;;6.22;3.53;;;9.00;71.60;;;;;;4906303;29;19911;-79
2022/01/08 13:01:21;;;;;;;4.38;2.88;;;9.00;73.00;;;;;;4914054;29;20036;-78
2022/01/08 13:03:53;;;;;;;6.75;3.20;;;9.00;72.60;;;;;;4905140;29;20020;-73
2022/01/08 13:06:18;;;;;;;4.47;2.90;;;8.80;72.30;;;;;;4916221;29;20040;-78
2022/01/08 13:08:46;;;;;;;4.50;3.33;;;8.80;73.30;;;;;;4904251;29;20496;-80
2022/01/08 13:11:36;;;;;;;10.63;3.53;;;8.70;73.60;;;;;;4910547;29;20271;-78
2022/01/08 13:14:09;;;;;;;5.72;2.95;;;8.70;74.20;;;;;;4879316;29;20029;-77
2022/01/08 13:16:45;;;;;;;8.52;4.25;;;8.70;73.70;;;;;;4901348;29;20745;-78